createdAt,value
2018-07-07T00:01:15.385Z,5.40
2018-07-07T00:03:42.808Z,4.55
2018-07-07T00:06:10.190Z,4.72
2018-07-07T00:08:37.589Z,5.37
2018-07-07T00:11:05.181Z,4.20
2018-07-07T00:13:32.546Z,5.25
2018-07-07T00:15:59.930Z,4.70
2018-07-07T00:18:27.294Z,4.85
2018-07-07T00:20:54.641Z,5.58
2018-07-07T00:23:21.994Z,4.90
2018-07-07T00:25:49.337Z,6.17
2018-07-07T00:28:16.804Z,5.15
2018-07-07T00:30:44.261Z,4.35
2018-07-07T00:33:11.706Z,5.22
2018-07-07T00:35:39.082Z,5.20
2018-07-07T00:38:06.503Z,4.95
2018-07-07T00:40:33.873Z,4.42
2018-07-07T00:43:01.245Z,5.30
2018-07-07T00:45:28.816Z,5.75
2018-07-07T00:47:56.162Z,6.62
2018-07-07T00:50:23.505Z,4.87
2018-07-07T00:52:50.878Z,5.35
2018-07-07T00:55:18.241Z,5.75
2018-07-07T00:57:45.656Z,5.65
2018-07-07T01:00:13.073Z,5.10
2018-07-07T01:02:40.474Z,5.60
2018-07-07T01:05:12.287Z,5.60
2018-07-07T01:07:39.640Z,5.87
2018-07-07T01:10:07.005Z,5.40
2018-07-07T01:12:34.373Z,4.90
2018-07-07T01:15:01.714Z,5.33
2018-07-07T01:17:29.087Z,4.65
2018-07-07T01:19:56.416Z,6.00
2018-07-07T01:22:23.766Z,4.90
2018-07-07T01:24:51.143Z,4.40
2018-07-07T01:27:18.485Z,4.55
2018-07-07T01:29:45.822Z,4.97
2018-07-07T01:32:13.212Z,4.70
2018-07-07T01:34:40.677Z,5.25
2018-07-07T01:37:08.309Z,6.35
2018-07-07T01:39:35.738Z,4.40
2018-07-07T01:42:03.153Z,4.90
2018-07-07T01:44:30.587Z,4.65
2018-07-07T01:46:57.941Z,5.15
2018-07-07T01:49:25.353Z,5.33
2018-07-07T01:51:53.018Z,5.00
2018-07-07T01:54:20.385Z,4.92
2018-07-07T01:56:47.739Z,5.05
2018-07-07T01:59:15.156Z,4.78
2018-07-07T02:01:42.565Z,4.85
2018-07-07T02:04:09.986Z,4.45
2018-07-07T02:06:37.359Z,5.05
2018-07-07T02:09:05.122Z,5.45
2018-07-07T02:11:32.510Z,5.20
2018-07-07T02:13:59.852Z,5.22
2018-07-07T02:16:27.226Z,6.15
2018-07-07T02:18:54.625Z,4.50
2018-07-07T02:21:28.480Z,5.10
2018-07-07T02:23:55.881Z,4.60
2018-07-07T02:26:23.271Z,4.90
2018-07-07T02:28:50.757Z,5.58
2018-07-07T02:31:18.145Z,5.60
2018-07-07T02:33:45.538Z,5.15
2018-07-07T02:36:12.875Z,5.58
2018-07-07T02:38:40.275Z,5.55
2018-07-07T02:41:07.690Z,4.75
2018-07-07T02:43:35.105Z,5.03
2018-07-07T02:46:02.482Z,6.85
2018-07-07T02:48:29.873Z,6.25
2018-07-07T02:50:57.262Z,5.70
2018-07-07T02:53:25.777Z,5.25
2018-07-07T02:55:53.121Z,6.00
2018-07-07T02:58:20.489Z,6.75
2018-07-07T03:00:47.833Z,5.42
2018-07-07T03:03:15.236Z,5.30
2018-07-07T03:05:42.650Z,5.87
2018-07-07T03:08:10.013Z,4.95
2018-07-07T03:10:37.438Z,4.50
2018-07-07T03:13:04.818Z,4.70
2018-07-07T03:15:32.182Z,5.72
2018-07-07T03:17:59.577Z,5.33
2018-07-07T03:20:27.076Z,5.47
2018-07-07T03:22:54.410Z,5.72
2018-07-07T03:25:21.753Z,5.28
2018-07-07T03:27:49.150Z,5.75
2018-07-07T03:30:16.521Z,5.62
2018-07-07T03:32:43.886Z,5.33
2018-07-07T03:35:11.282Z,5.30
2018-07-07T03:37:38.674Z,5.28
2018-07-07T03:40:06.298Z,4.55
2018-07-07T03:42:33.678Z,4.72
2018-07-07T03:45:01.042Z,7.20
2018-07-07T03:47:28.459Z,5.45
2018-07-07T03:49:55.842Z,5.33
2018-07-07T03:52:23.185Z,6.10
2018-07-07T03:54:50.621Z,5.75
2018-07-07T03:57:18.022Z,5.25
2018-07-07T03:59:45.385Z,5.78
2018-07-07T04:02:12.733Z,4.65
2018-07-07T04:04:40.942Z,5.00
2018-07-07T04:07:09.395Z,4.65
2018-07-07T04:09:43.258Z,5.20
2018-07-07T04:12:10.618Z,5.95
2018-07-07T04:14:38.003Z,4.90
2018-07-07T04:17:05.438Z,5.05
2018-07-07T04:19:32.780Z,5.37
2018-07-07T04:22:00.198Z,5.25
2018-07-07T04:24:27.604Z,4.62
2018-07-07T04:26:54.980Z,6.05
2018-07-07T04:29:22.342Z,5.40
2018-07-07T04:31:49.682Z,4.85
2018-07-07T04:34:17.086Z,5.28
2018-07-07T04:36:44.447Z,5.95
2018-07-07T04:39:11.804Z,4.60
2018-07-07T04:41:39.201Z,4.85
2018-07-07T04:44:06.554Z,5.35
2018-07-07T04:46:33.973Z,5.03
2018-07-07T04:49:01.363Z,5.42
2018-07-07T04:51:28.715Z,5.15
2018-07-07T04:53:56.082Z,5.35
2018-07-07T04:56:23.432Z,4.92
2018-07-07T04:58:50.901Z,5.00
2018-07-07T05:01:18.261Z,4.35
2018-07-07T05:03:45.641Z,6.05
2018-07-07T05:06:12.999Z,4.80
2018-07-07T05:08:40.334Z,5.58
2018-07-07T05:11:07.896Z,4.37
2018-07-07T05:13:35.259Z,4.97
2018-07-07T05:16:02.661Z,4.90
2018-07-07T05:18:30.046Z,5.17
2018-07-07T05:20:57.387Z,5.15
2018-07-07T05:23:24.765Z,4.45
2018-07-07T05:25:52.209Z,5.30
2018-07-07T05:28:19.574Z,4.80
2018-07-07T05:30:46.917Z,4.90
2018-07-07T05:33:14.304Z,6.00
2018-07-07T05:35:41.682Z,5.40
2018-07-07T05:38:09.084Z,4.47
2018-07-07T05:40:36.566Z,5.10
2018-07-07T05:43:03.971Z,5.50
2018-07-07T05:45:31.374Z,4.93
2018-07-07T05:47:58.714Z,5.60
2018-07-07T05:50:26.062Z,4.80
2018-07-07T05:52:53.430Z,5.30
2018-07-07T05:55:20.805Z,4.63
2018-07-07T05:57:48.158Z,4.90
2018-07-07T06:00:16.081Z,4.70
2018-07-07T06:02:43.502Z,5.60
2018-07-07T06:05:10.927Z,4.90
2018-07-07T06:07:38.302Z,6.10
2018-07-07T06:10:05.744Z,5.20
2018-07-07T06:12:33.149Z,5.30
2018-07-07T06:15:00.512Z,5.00
2018-07-07T06:17:27.887Z,5.10
2018-07-07T06:19:55.251Z,5.57
2018-07-07T06:22:22.618Z,5.67
2018-07-07T06:24:50.010Z,5.27
2018-07-07T06:27:17.341Z,5.20
2018-07-07T06:29:44.689Z,5.27
2018-07-07T06:32:12.142Z,4.83
2018-07-07T06:34:39.487Z,5.40
2018-07-07T06:37:06.926Z,6.17
2018-07-07T06:39:34.313Z,5.77
2018-07-07T06:42:01.699Z,4.80
2018-07-07T06:44:29.033Z,5.20
2018-07-07T06:46:56.378Z,5.27
2018-07-07T06:49:23.766Z,4.93
2018-07-07T06:51:51.143Z,5.20
2018-07-07T06:54:18.534Z,5.70
2018-07-07T06:56:45.962Z,5.10
2018-07-07T06:59:13.370Z,4.63
2018-07-07T07:01:40.804Z,4.87
2018-07-07T07:04:08.216Z,4.87
2018-07-07T07:06:35.636Z,5.17
2018-07-07T07:09:03.295Z,5.20
2018-07-07T07:11:30.694Z,5.47
2018-07-07T07:13:58.074Z,4.93
2018-07-07T07:16:25.446Z,5.40
2018-07-07T07:18:52.948Z,5.33
2018-07-07T07:21:20.302Z,5.10
2018-07-07T07:23:47.675Z,5.37
2018-07-07T07:26:15.097Z,5.90
2018-07-07T07:28:42.507Z,4.90
2018-07-07T07:31:09.859Z,5.57
2018-07-07T07:33:37.268Z,5.37
2018-07-07T07:36:06.224Z,5.20
2018-07-07T07:38:33.614Z,5.87
2018-07-07T07:41:00.982Z,4.60
2018-07-07T07:43:28.386Z,5.43
2018-07-07T07:45:55.763Z,5.43
2018-07-07T07:48:23.165Z,5.10
2018-07-07T07:50:50.601Z,4.87
2018-07-07T07:53:17.952Z,5.50
2018-07-07T07:55:45.331Z,5.60
2018-07-07T07:58:12.680Z,5.17
2018-07-07T08:00:40.056Z,5.20
2018-07-07T08:03:07.421Z,5.30
2018-07-07T08:05:34.772Z,5.00
2018-07-07T08:08:02.137Z,5.27
2018-07-07T08:10:29.522Z,4.93
2018-07-07T08:12:56.880Z,5.00
2018-07-07T08:15:24.286Z,4.90
2018-07-07T08:17:51.648Z,5.60
2018-07-07T08:20:19.021Z,5.50
2018-07-07T08:22:46.399Z,6.10
2018-07-07T08:25:13.799Z,5.53
2018-07-07T08:27:41.172Z,5.23
2018-07-07T08:30:08.575Z,5.20
2018-07-07T08:32:35.996Z,6.97
2018-07-07T08:35:03.414Z,5.43
2018-07-07T08:37:30.797Z,5.20
2018-07-07T08:39:58.269Z,5.07
2018-07-07T08:42:25.615Z,5.10
2018-07-07T08:44:53.000Z,5.43
2018-07-07T08:47:20.361Z,5.00
2018-07-07T08:49:47.761Z,5.17
2018-07-07T08:52:15.162Z,5.10
2018-07-07T08:54:42.543Z,5.70
2018-07-07T08:57:09.943Z,5.60
2018-07-07T08:59:37.309Z,5.73
2018-07-07T09:02:04.723Z,4.70
2018-07-07T09:04:32.137Z,4.40
2018-07-07T09:06:59.519Z,4.63
2018-07-07T09:09:26.989Z,5.30
2018-07-07T09:11:54.416Z,5.23
2018-07-07T09:14:21.899Z,5.43
2018-07-07T09:16:49.297Z,5.47
2018-07-07T09:19:17.162Z,5.13
2018-07-07T09:21:44.884Z,5.27
2018-07-07T09:24:12.280Z,5.67
2018-07-07T09:26:39.673Z,5.53
2018-07-07T09:29:07.077Z,4.70
2018-07-07T09:31:34.461Z,5.40
2018-07-07T09:34:01.840Z,5.17
2018-07-07T09:36:29.274Z,4.70
2018-07-07T09:38:56.683Z,5.20
2018-07-07T09:41:24.039Z,4.77
2018-07-07T09:43:51.550Z,5.30
2018-07-07T09:46:18.961Z,5.40
2018-07-07T09:48:46.390Z,4.20
2018-07-07T09:51:13.775Z,4.90
2018-07-07T09:53:41.148Z,4.60
2018-07-07T09:56:08.594Z,5.20
2018-07-07T09:58:36.052Z,4.73
2018-07-07T10:01:03.986Z,4.77
2018-07-07T10:03:31.347Z,4.80
2018-07-07T10:05:58.786Z,4.13
2018-07-07T10:08:26.211Z,4.93
2018-07-07T10:10:53.566Z,5.00
2018-07-07T10:13:20.934Z,4.83
2018-07-07T10:15:48.323Z,4.10
2018-07-07T10:18:16.309Z,5.20
2018-07-07T10:20:43.748Z,5.23
2018-07-07T10:23:11.151Z,4.90
2018-07-07T10:25:38.503Z,4.77
2018-07-07T10:28:05.867Z,4.53
2018-07-07T10:30:33.337Z,5.03
2018-07-07T10:33:00.698Z,4.47
2018-07-07T10:35:28.053Z,4.60
2018-07-07T10:37:55.594Z,5.13
2018-07-07T10:40:22.970Z,4.13
2018-07-07T10:42:50.345Z,5.00
2018-07-07T10:45:17.746Z,4.40
2018-07-07T10:47:45.102Z,4.80
2018-07-07T10:50:12.525Z,4.93
2018-07-07T10:52:40.010Z,4.60
2018-07-07T10:55:07.371Z,4.90
2018-07-07T10:57:34.734Z,4.80
2018-07-07T11:00:02.154Z,4.73
2018-07-07T11:02:29.586Z,4.80
2018-07-07T11:04:56.996Z,4.60
2018-07-07T11:07:24.344Z,4.50
2018-07-07T11:09:51.693Z,4.20
2018-07-07T11:12:19.152Z,4.93
2018-07-07T11:14:46.505Z,4.33
2018-07-07T11:17:13.895Z,4.90
2018-07-07T11:19:41.293Z,4.40
2018-07-07T11:22:08.289Z,4.93
2018-07-07T11:24:35.645Z,4.70
2018-07-07T11:27:03.025Z,4.70
2018-07-07T11:29:30.474Z,4.63
2018-07-07T11:31:57.840Z,4.50
2018-07-07T11:34:25.249Z,5.10
2018-07-07T11:36:52.731Z,4.73
2018-07-07T11:39:24.653Z,4.87
2018-07-07T11:41:52.049Z,4.23
2018-07-07T11:44:19.424Z,4.23
2018-07-07T11:46:46.778Z,4.83
2018-07-07T11:49:14.146Z,4.83
2018-07-07T11:51:41.480Z,4.20
2018-07-07T11:54:09.161Z,4.30
2018-07-07T11:56:36.526Z,4.40
2018-07-07T11:59:03.916Z,4.70
2018-07-07T12:01:31.261Z,5.10
2018-07-07T12:03:58.659Z,4.60
2018-07-07T12:06:26.014Z,4.63
2018-07-07T12:08:53.387Z,4.67
2018-07-07T12:11:20.802Z,4.03
2018-07-07T12:13:48.161Z,4.97
2018-07-07T12:16:15.513Z,4.50
2018-07-07T12:18:42.864Z,4.70
2018-07-07T12:21:10.222Z,4.50
2018-07-07T12:23:37.585Z,4.60
2018-07-07T12:26:05.008Z,4.33
2018-07-07T12:28:32.371Z,4.27
2018-07-07T12:30:59.755Z,4.57
2018-07-07T12:33:27.178Z,4.60
2018-07-07T12:35:55.430Z,4.53
2018-07-07T12:38:22.881Z,5.00
2018-07-07T12:40:50.350Z,4.67
2018-07-07T12:43:17.653Z,4.87
2018-07-07T12:45:45.093Z,4.40
2018-07-07T12:48:12.453Z,4.43
2018-07-07T12:50:39.826Z,4.30
2018-07-07T12:53:07.182Z,4.70
2018-07-07T12:55:34.541Z,4.43
2018-07-07T12:58:01.937Z,4.40
2018-07-07T13:00:29.283Z,4.47
2018-07-07T13:02:56.634Z,4.53
2018-07-07T13:05:24.099Z,5.00
2018-07-07T13:07:51.471Z,4.87
2018-07-07T13:10:18.888Z,4.70
2018-07-07T13:12:46.288Z,4.63
2018-07-07T13:15:13.664Z,4.00
2018-07-07T13:17:41.047Z,4.50
2018-07-07T13:20:08.421Z,4.40
2018-07-07T13:22:35.779Z,4.07
2018-07-07T13:25:03.209Z,4.43
2018-07-07T13:27:30.573Z,4.90
2018-07-07T13:29:57.952Z,4.27
2018-07-07T13:32:25.333Z,4.20
2018-07-07T13:34:52.710Z,4.70
2018-07-07T13:37:20.106Z,5.27
2018-07-07T13:39:47.501Z,4.20
2018-07-07T13:42:14.921Z,3.63
2018-07-07T13:44:42.273Z,3.83
2018-07-07T13:47:10.087Z,5.23
2018-07-07T13:49:38.234Z,4.20
2018-07-07T13:52:05.759Z,3.70
2018-07-07T13:54:33.156Z,4.30
2018-07-07T13:57:00.553Z,4.87
2018-07-07T13:59:27.949Z,4.43
2018-07-07T14:01:55.333Z,4.60
2018-07-07T14:04:22.998Z,3.80
2018-07-07T14:06:50.351Z,4.67
2018-07-07T14:09:17.701Z,4.53
2018-07-07T14:11:45.072Z,4.17
2018-07-07T14:14:12.494Z,4.37
2018-07-07T14:16:39.945Z,4.33
2018-07-07T14:19:07.360Z,4.10
2018-07-07T14:21:35.141Z,4.20
2018-07-07T14:24:02.603Z,4.40
2018-07-07T14:26:29.977Z,4.13
2018-07-07T14:28:57.460Z,4.27
2018-07-07T14:31:24.870Z,4.03
2018-07-07T14:33:52.374Z,3.60
2018-07-07T14:36:19.806Z,3.80
2018-07-07T14:38:47.189Z,4.23
2018-07-07T14:41:16.182Z,3.70
2018-07-07T14:43:48.286Z,4.57
2018-07-07T14:46:15.671Z,3.67
2018-07-07T14:48:43.022Z,3.70
2018-07-07T14:51:10.408Z,4.27
2018-07-07T14:53:37.798Z,4.10
2018-07-07T14:56:05.252Z,4.00
2018-07-07T14:58:33.536Z,4.23
2018-07-07T15:01:00.909Z,4.43
2018-07-07T15:03:28.271Z,3.93
2018-07-07T15:05:55.674Z,4.60
2018-07-07T15:08:23.037Z,4.20
2018-07-07T15:10:50.414Z,4.20
2018-07-07T15:13:17.821Z,4.53
2018-07-07T15:15:45.208Z,4.20
2018-07-07T15:18:12.549Z,4.07
2018-07-07T15:20:39.918Z,4.13
2018-07-07T15:23:07.258Z,4.20
2018-07-07T15:25:34.666Z,4.10
2018-07-07T15:28:02.430Z,4.10
2018-07-07T15:30:29.805Z,4.10
2018-07-07T15:32:57.171Z,4.50
2018-07-07T15:35:24.596Z,4.30
2018-07-07T15:37:51.943Z,4.33
2018-07-07T15:40:19.352Z,4.13
2018-07-07T15:42:46.725Z,4.60
2018-07-07T15:45:14.087Z,4.40
2018-07-07T15:47:41.445Z,4.33
2018-07-07T15:50:08.801Z,4.03
2018-07-07T15:52:36.242Z,4.80
2018-07-07T15:55:03.669Z,4.43
2018-07-07T15:57:31.039Z,4.40
2018-07-07T15:59:58.422Z,4.90
2018-07-07T16:02:25.777Z,4.53
2018-07-07T16:04:53.149Z,4.00
2018-07-07T16:07:20.518Z,4.73
2018-07-07T16:09:47.843Z,4.33
2018-07-07T16:12:15.245Z,4.40
2018-07-07T16:14:42.629Z,5.13
2018-07-07T16:17:10.005Z,4.73
2018-07-07T16:19:37.356Z,4.13
2018-07-07T16:22:04.790Z,4.73
2018-07-07T16:24:32.177Z,3.67
2018-07-07T16:26:59.551Z,4.73
2018-07-07T16:29:26.982Z,4.53
2018-07-07T16:31:54.324Z,4.70
2018-07-07T16:34:21.693Z,4.37
2018-07-07T16:36:49.081Z,4.80
2018-07-07T16:39:16.466Z,5.10
2018-07-07T16:41:43.879Z,5.43
2018-07-07T16:44:11.251Z,4.93
2018-07-07T16:46:38.658Z,3.97
2018-07-07T16:49:06.019Z,4.80
2018-07-07T16:51:33.490Z,5.13
2018-07-07T16:54:01.058Z,4.80
2018-07-07T16:56:28.478Z,5.30
2018-07-07T16:58:55.887Z,4.83
2018-07-07T17:01:23.314Z,4.70
2018-07-07T17:03:50.705Z,5.63
2018-07-07T17:06:18.120Z,5.20
2018-07-07T17:08:45.514Z,5.07
2018-07-07T17:11:12.935Z,5.73
2018-07-07T17:13:41.029Z,4.80
2018-07-07T17:16:08.465Z,4.33
2018-07-07T17:18:35.863Z,4.50
2018-07-07T17:21:03.366Z,4.53
2018-07-07T17:23:30.836Z,5.43
2018-07-07T17:25:58.238Z,5.13
2018-07-07T17:28:25.565Z,4.63
2018-07-07T17:30:52.984Z,6.33
2018-07-07T17:33:20.794Z,4.40
2018-07-07T17:35:48.177Z,4.70
2018-07-07T17:38:15.891Z,5.20
2018-07-07T17:40:43.369Z,5.23
2018-07-07T17:43:10.852Z,4.90
2018-07-07T17:45:38.474Z,4.87
2018-07-07T17:48:05.893Z,5.00
2018-07-07T17:50:33.286Z,4.60
2018-07-07T17:53:00.691Z,4.87
2018-07-07T17:55:28.118Z,5.40
2018-07-07T17:57:55.513Z,4.50
2018-07-07T18:00:22.930Z,5.80
2018-07-07T18:02:50.378Z,5.63
2018-07-07T18:05:17.746Z,4.80
2018-07-07T18:07:45.150Z,5.10
2018-07-07T18:10:12.543Z,4.77
2018-07-07T18:12:39.910Z,4.10
2018-07-07T18:15:07.455Z,4.40
2018-07-07T18:17:34.836Z,4.37
2018-07-07T18:20:02.253Z,4.20
2018-07-07T18:22:29.633Z,4.37
2018-07-07T18:24:56.990Z,4.30
2018-07-07T18:27:24.358Z,4.80
2018-07-07T18:29:51.732Z,3.93
2018-07-07T18:32:19.057Z,4.53
2018-07-07T18:34:46.432Z,4.60
2018-07-07T18:37:13.780Z,3.70
2018-07-07T18:39:41.118Z,3.80
2018-07-07T18:42:08.475Z,3.33
2018-07-07T18:44:35.835Z,3.87
2018-07-07T18:47:03.245Z,4.47
2018-07-07T18:49:30.618Z,3.90
2018-07-07T18:51:57.965Z,3.80
2018-07-07T18:54:25.365Z,3.57
2018-07-07T18:56:53.202Z,3.40
2018-07-07T18:59:20.481Z,4.33
2018-07-07T19:01:47.924Z,4.20
2018-07-07T19:04:15.246Z,3.83
2018-07-07T19:06:42.660Z,3.90
2018-07-07T19:09:10.075Z,3.80
2018-07-07T19:11:37.883Z,3.63
2018-07-07T19:14:05.371Z,4.57
2018-07-07T19:16:32.778Z,3.87
2018-07-07T19:19:00.133Z,3.90
2018-07-07T19:22:30.467Z,3.77
2018-07-07T19:25:03.271Z,4.23
2018-07-07T19:27:30.670Z,4.20
2018-07-07T19:29:58.048Z,3.60
2018-07-07T19:32:30.691Z,4.00
2018-07-07T19:35:03.592Z,3.60
2018-07-07T19:37:30.944Z,3.37
2018-07-07T19:39:58.308Z,3.70
2018-07-07T19:42:25.689Z,3.80
2018-07-07T19:44:53.030Z,4.37
2018-07-07T19:47:20.393Z,3.33
2018-07-07T19:49:47.752Z,3.10
2018-07-07T19:52:15.147Z,3.07
2018-07-07T19:54:42.843Z,3.77
2018-07-07T19:57:10.313Z,3.30
2018-07-07T19:59:37.728Z,3.27
2018-07-07T20:02:05.966Z,3.00
2018-07-07T20:04:33.327Z,3.20
2018-07-07T20:07:00.680Z,3.43
2018-07-07T20:09:28.073Z,4.40
2018-07-07T20:11:55.495Z,3.80
2018-07-07T20:14:25.445Z,2.90
2018-07-07T20:17:10.694Z,3.63
2018-07-07T20:19:46.610Z,3.50
2018-07-07T20:22:14.008Z,3.33
2018-07-07T20:24:41.340Z,3.60
2018-07-07T20:27:14.239Z,3.30
2018-07-07T20:29:41.626Z,3.90
2018-07-07T20:32:14.320Z,3.80
2018-07-07T20:34:47.573Z,3.40
2018-07-07T20:37:21.248Z,4.07
2018-07-07T20:39:48.669Z,3.90
2018-07-07T20:42:16.035Z,3.60
2018-07-07T20:44:43.425Z,3.70
2018-07-07T20:47:10.867Z,3.67
2018-07-07T20:49:38.441Z,3.10
2018-07-07T20:52:05.917Z,3.30
2018-07-07T20:54:33.313Z,3.20
2018-07-07T20:57:00.697Z,3.50
2018-07-07T20:59:28.109Z,3.77
2018-07-07T21:01:55.783Z,3.77
2018-07-07T21:04:23.348Z,3.45
2018-07-07T21:06:50.924Z,3.87
2018-07-07T21:09:18.338Z,3.70
2018-07-07T21:11:45.735Z,3.83
2018-07-07T21:14:13.113Z,3.20
2018-07-07T21:16:40.461Z,4.05
2018-07-07T21:19:07.910Z,4.10
2018-07-07T21:21:35.292Z,4.03
2018-07-07T21:24:02.674Z,3.70
2018-07-07T21:26:30.145Z,4.10
2018-07-07T21:28:57.538Z,4.72
2018-07-07T21:31:24.972Z,4.22
2018-07-07T21:33:52.292Z,4.35
2018-07-07T21:36:19.733Z,4.17
2018-07-07T21:38:47.141Z,4.60
2018-07-07T21:41:14.574Z,3.87
2018-07-07T21:43:41.961Z,3.70
2018-07-07T21:46:09.305Z,3.70
2018-07-07T21:48:36.739Z,4.05
2018-07-07T21:51:04.105Z,3.95
2018-07-07T21:53:31.564Z,4.05
2018-07-07T21:55:58.944Z,3.87
2018-07-07T21:58:27.069Z,3.90
2018-07-07T22:01:05.639Z,4.60
2018-07-07T22:03:38.528Z,3.80
2018-07-07T22:06:07.414Z,3.65
2018-07-07T22:08:35.172Z,4.05
2018-07-07T22:11:02.557Z,3.65
2018-07-07T22:13:30.041Z,3.95
2018-07-07T22:15:57.460Z,4.10
2018-07-07T22:18:24.820Z,4.12
2018-07-07T22:20:57.874Z,3.70
2018-07-07T22:23:25.242Z,4.00
2018-07-07T22:25:52.629Z,4.20
2018-07-07T22:28:20.011Z,3.58
2018-07-07T22:30:47.422Z,4.50
2018-07-07T22:33:20.139Z,4.17
2018-07-07T22:35:53.025Z,4.30
2018-07-07T22:38:25.871Z,4.33
2018-07-07T22:40:53.266Z,4.25
2018-07-07T22:43:20.689Z,4.10
2018-07-07T22:45:48.071Z,3.80
2018-07-07T22:48:15.505Z,3.80
2018-07-07T22:50:42.881Z,4.45
2018-07-07T22:53:10.288Z,4.00
2018-07-07T22:55:37.725Z,4.20
2018-07-07T22:58:05.193Z,5.15
2018-07-07T23:00:34.030Z,4.10
2018-07-07T23:03:02.077Z,4.35
2018-07-07T23:05:29.629Z,4.35
2018-07-07T23:07:57.062Z,4.22
2018-07-07T23:10:24.475Z,4.35
2018-07-07T23:12:51.925Z,4.55
2018-07-07T23:15:19.383Z,4.42
2018-07-07T23:17:46.687Z,4.67
2018-07-07T23:20:14.082Z,4.33
2018-07-07T23:22:49.855Z,4.60
2018-07-07T23:25:17.268Z,4.92
2018-07-07T23:27:44.635Z,4.70
2018-07-07T23:30:11.994Z,4.70
2018-07-07T23:32:39.441Z,5.28
2018-07-07T23:35:06.803Z,3.95
2018-07-07T23:37:34.166Z,5.17
2018-07-07T23:40:01.921Z,4.90
2018-07-07T23:42:29.274Z,4.72
2018-07-07T23:44:57.034Z,4.30
2018-07-07T23:47:24.462Z,5.47
2018-07-07T23:49:51.839Z,4.87
2018-07-07T23:52:19.220Z,4.78
2018-07-07T23:54:46.650Z,5.50
2018-07-07T23:57:14.041Z,5.37
2018-07-07T23:59:41.387Z,5.37
